sensor_id;sensor_type;location;lat;lon;timestamp;P1;durP1;ratioP1;P2;durP2;ratioP2
61036;SDS011;57313;47.040;15.498;2022-07-23T00:00:30;18.17;;;8.65;;
61036;SDS011;57313;47.040;15.498;2022-07-23T00:03:06;15.80;;;8.43;;
61036;SDS011;57313;47.040;15.498;2022-07-23T00:05:34;17.55;;;8.50;;
61036;SDS011;57313;47.040;15.498;2022-07-23T00:08:04;14.63;;;9.27;;
61036;SDS011;57313;47.040;15.498;2022-07-23T00:10:38;14.38;;;8.73;;
61036;SDS011;57313;47.040;15.498;2022-07-23T00:13:06;11.93;;;8.02;;
61036;SDS011;57313;47.040;15.498;2022-07-23T00:15:33;15.27;;;8.88;;
61036;SDS011;57313;47.040;15.498;2022-07-23T00:18:00;15.95;;;9.48;;
61036;SDS011;57313;47.040;15.498;2022-07-23T00:20:29;15.77;;;10.30;;
61036;SDS011;57313;47.040;15.498;2022-07-23T00:22:56;14.27;;;9.48;;
61036;SDS011;57313;47.040;15.498;2022-07-23T00:25:24;16.02;;;9.30;;
61036;SDS011;57313;47.040;15.498;2022-07-23T00:27:56;12.65;;;8.32;;
61036;SDS011;57313;47.040;15.498;2022-07-23T00:30:24;15.73;;;9.73;;
61036;SDS011;57313;47.040;15.498;2022-07-23T00:32:52;13.98;;;9.52;;
61036;SDS011;57313;47.040;15.498;2022-07-23T00:35:22;15.05;;;9.10;;
61036;SDS011;57313;47.040;15.498;2022-07-23T00:37:53;15.70;;;9.07;;
61036;SDS011;57313;47.040;15.498;2022-07-23T00:40:20;15.10;;;8.88;;
61036;SDS011;57313;47.040;15.498;2022-07-23T00:42:48;15.95;;;8.88;;
61036;SDS011;57313;47.040;15.498;2022-07-23T00:45:15;15.30;;;9.25;;
61036;SDS011;57313;47.040;15.498;2022-07-23T00:47:44;15.75;;;8.63;;
61036;SDS011;57313;47.040;15.498;2022-07-23T00:50:11;14.40;;;9.25;;
61036;SDS011;57313;47.040;15.498;2022-07-23T00:52:40;15.48;;;8.75;;
61036;SDS011;57313;47.040;15.498;2022-07-23T00:55:09;14.48;;;9.27;;
61036;SDS011;57313;47.040;15.498;2022-07-23T00:57:38;13.23;;;9.07;;
61036;SDS011;57313;47.040;15.498;2022-07-23T01:00:08;14.85;;;9.13;;
61036;SDS011;57313;47.040;15.498;2022-07-23T01:02:38;14.18;;;9.10;;
61036;SDS011;57313;47.040;15.498;2022-07-23T01:05:06;14.98;;;8.85;;
61036;SDS011;57313;47.040;15.498;2022-07-23T01:07:34;14.75;;;9.48;;
61036;SDS011;57313;47.040;15.498;2022-07-23T01:10:03;13.68;;;8.80;;
61036;SDS011;57313;47.040;15.498;2022-07-23T01:12:34;18.13;;;9.95;;
61036;SDS011;57313;47.040;15.498;2022-07-23T01:15:02;16.20;;;9.45;;
61036;SDS011;57313;47.040;15.498;2022-07-23T01:17:30;13.57;;;9.13;;
61036;SDS011;57313;47.040;15.498;2022-07-23T01:19:58;15.18;;;9.20;;
61036;SDS011;57313;47.040;15.498;2022-07-23T01:22:29;16.23;;;9.55;;
61036;SDS011;57313;47.040;15.498;2022-07-23T01:24:57;15.57;;;9.23;;
61036;SDS011;57313;47.040;15.498;2022-07-23T01:27:25;15.57;;;9.65;;
61036;SDS011;57313;47.040;15.498;2022-07-23T01:29:52;13.65;;;9.20;;
61036;SDS011;57313;47.040;15.498;2022-07-23T01:32:21;17.40;;;9.45;;
61036;SDS011;57313;47.040;15.498;2022-07-23T01:34:49;19.13;;;9.55;;
61036;SDS011;57313;47.040;15.498;2022-07-23T01:37:16;14.88;;;9.45;;
61036;SDS011;57313;47.040;15.498;2022-07-23T01:39:47;15.18;;;10.02;;
61036;SDS011;57313;47.040;15.498;2022-07-23T01:42:14;14.82;;;9.80;;
61036;SDS011;57313;47.040;15.498;2022-07-23T01:44:43;17.27;;;10.30;;
61036;SDS011;57313;47.040;15.498;2022-07-23T01:47:12;14.00;;;9.68;;
61036;SDS011;57313;47.040;15.498;2022-07-23T01:49:40;18.05;;;9.95;;
61036;SDS011;57313;47.040;15.498;2022-07-23T01:52:08;16.13;;;10.43;;
61036;SDS011;57313;47.040;15.498;2022-07-23T01:54:36;13.32;;;9.35;;
61036;SDS011;57313;47.040;15.498;2022-07-23T01:57:08;17.75;;;9.80;;
61036;SDS011;57313;47.040;15.498;2022-07-23T01:59:36;15.32;;;10.60;;
61036;SDS011;57313;47.040;15.498;2022-07-23T02:02:04;18.55;;;10.25;;
61036;SDS011;57313;47.040;15.498;2022-07-23T02:04:32;14.68;;;9.13;;
61036;SDS011;57313;47.040;15.498;2022-07-23T02:06:59;19.40;;;10.30;;
61036;SDS011;57313;47.040;15.498;2022-07-23T02:09:27;16.00;;;9.60;;
61036;SDS011;57313;47.040;15.498;2022-07-23T02:11:55;17.55;;;10.18;;
61036;SDS011;57313;47.040;15.498;2022-07-23T02:14:24;17.73;;;9.68;;
61036;SDS011;57313;47.040;15.498;2022-07-23T02:16:53;16.73;;;9.85;;
61036;SDS011;57313;47.040;15.498;2022-07-23T02:19:20;14.77;;;9.93;;
61036;SDS011;57313;47.040;15.498;2022-07-23T02:21:48;14.25;;;9.75;;
61036;SDS011;57313;47.040;15.498;2022-07-23T02:24:16;16.00;;;10.05;;
61036;SDS011;57313;47.040;15.498;2022-07-23T02:26:44;16.42;;;9.60;;
61036;SDS011;57313;47.040;15.498;2022-07-23T02:29:11;19.67;;;9.90;;
61036;SDS011;57313;47.040;15.498;2022-07-23T02:31:41;15.07;;;9.77;;
61036;SDS011;57313;47.040;15.498;2022-07-23T02:34:09;16.38;;;10.02;;
61036;SDS011;57313;47.040;15.498;2022-07-23T02:36:37;16.95;;;10.07;;
61036;SDS011;57313;47.040;15.498;2022-07-23T02:39:05;17.27;;;10.07;;
61036;SDS011;57313;47.040;15.498;2022-07-23T02:41:32;14.80;;;10.10;;
61036;SDS011;57313;47.040;15.498;2022-07-23T02:44:00;16.83;;;10.13;;
61036;SDS011;57313;47.040;15.498;2022-07-23T02:46:28;15.20;;;10.30;;
61036;SDS011;57313;47.040;15.498;2022-07-23T02:48:57;16.48;;;9.70;;
61036;SDS011;57313;47.040;15.498;2022-07-23T02:51:25;17.23;;;9.75;;
61036;SDS011;57313;47.040;15.498;2022-07-23T02:53:53;14.60;;;9.85;;
61036;SDS011;57313;47.040;15.498;2022-07-23T02:56:21;15.80;;;10.35;;
61036;SDS011;57313;47.040;15.498;2022-07-23T02:58:49;15.90;;;10.02;;
61036;SDS011;57313;47.040;15.498;2022-07-23T03:01:16;16.08;;;9.98;;
61036;SDS011;57313;47.040;15.498;2022-07-23T03:03:47;16.15;;;10.27;;
61036;SDS011;57313;47.040;15.498;2022-07-23T03:06:15;16.58;;;11.23;;
61036;SDS011;57313;47.040;15.498;2022-07-23T03:08:43;16.70;;;10.52;;
61036;SDS011;57313;47.040;15.498;2022-07-23T03:11:11;17.38;;;10.90;;
61036;SDS011;57313;47.040;15.498;2022-07-23T03:13:39;19.98;;;10.52;;
61036;SDS011;57313;47.040;15.498;2022-07-23T03:16:07;18.27;;;10.68;;
61036;SDS011;57313;47.040;15.498;2022-07-23T03:18:35;15.38;;;10.68;;
61036;SDS011;57313;47.040;15.498;2022-07-23T03:21:06;17.63;;;10.95;;
61036;SDS011;57313;47.040;15.498;2022-07-23T03:23:37;16.63;;;11.10;;
61036;SDS011;57313;47.040;15.498;2022-07-23T03:26:04;15.57;;;10.75;;
61036;SDS011;57313;47.040;15.498;2022-07-23T03:28:32;16.52;;;10.95;;
61036;SDS011;57313;47.040;15.498;2022-07-23T03:31:00;16.90;;;10.30;;
61036;SDS011;57313;47.040;15.498;2022-07-23T03:33:28;14.90;;;9.95;;
61036;SDS011;57313;47.040;15.498;2022-07-23T03:35:55;16.63;;;10.88;;
61036;SDS011;57313;47.040;15.498;2022-07-23T03:38:23;17.67;;;11.38;;
61036;SDS011;57313;47.040;15.498;2022-07-23T03:40:52;18.73;;;11.10;;
61036;SDS011;57313;47.040;15.498;2022-07-23T03:43:20;17.45;;;11.38;;
61036;SDS011;57313;47.040;15.498;2022-07-23T03:45:48;19.60;;;11.40;;
61036;SDS011;57313;47.040;15.498;2022-07-23T03:48:15;17.92;;;10.82;;
61036;SDS011;57313;47.040;15.498;2022-07-23T03:50:43;19.08;;;11.85;;
61036;SDS011;57313;47.040;15.498;2022-07-23T03:53:11;17.27;;;11.40;;
61036;SDS011;57313;47.040;15.498;2022-07-23T03:55:39;18.33;;;11.75;;
61036;SDS011;57313;47.040;15.498;2022-07-23T03:58:08;18.55;;;11.43;;
61036;SDS011;57313;47.040;15.498;2022-07-23T04:00:35;19.25;;;11.23;;
61036;SDS011;57313;47.040;15.498;2022-07-23T04:03:03;15.63;;;10.15;;
61036;SDS011;57313;47.040;15.498;2022-07-23T04:05:31;22.42;;;11.20;;
61036;SDS011;57313;47.040;15.498;2022-07-23T04:07:58;15.35;;;11.10;;
61036;SDS011;57313;47.040;15.498;2022-07-23T04:10:26;16.92;;;10.85;;
61036;SDS011;57313;47.040;15.498;2022-07-23T04:12:53;16.55;;;12.15;;
61036;SDS011;57313;47.040;15.498;2022-07-23T04:15:22;16.02;;;11.32;;
61036;SDS011;57313;47.040;15.498;2022-07-23T04:17:50;17.60;;;11.45;;
61036;SDS011;57313;47.040;15.498;2022-07-23T04:20:17;15.85;;;11.18;;
61036;SDS011;57313;47.040;15.498;2022-07-23T04:22:44;17.77;;;11.85;;
61036;SDS011;57313;47.040;15.498;2022-07-23T04:25:12;17.75;;;12.10;;
61036;SDS011;57313;47.040;15.498;2022-07-23T04:27:40;18.33;;;12.07;;
61036;SDS011;57313;47.040;15.498;2022-07-23T04:30:08;18.40;;;11.65;;
61036;SDS011;57313;47.040;15.498;2022-07-23T04:32:38;16.67;;;11.90;;
61036;SDS011;57313;47.040;15.498;2022-07-23T04:35:05;16.13;;;11.70;;
61036;SDS011;57313;47.040;15.498;2022-07-23T04:37:32;19.17;;;11.63;;
61036;SDS011;57313;47.040;15.498;2022-07-23T04:40:00;19.80;;;13.23;;
61036;SDS011;57313;47.040;15.498;2022-07-23T04:42:27;19.75;;;13.15;;
61036;SDS011;57313;47.040;15.498;2022-07-23T04:44:55;19.42;;;13.13;;
61036;SDS011;57313;47.040;15.498;2022-07-23T04:47:22;21.75;;;12.50;;
61036;SDS011;57313;47.040;15.498;2022-07-23T04:49:55;20.63;;;12.27;;
61036;SDS011;57313;47.040;15.498;2022-07-23T04:52:23;21.40;;;12.82;;
61036;SDS011;57313;47.040;15.498;2022-07-23T04:54:51;20.63;;;13.30;;
61036;SDS011;57313;47.040;15.498;2022-07-23T04:57:18;17.13;;;12.88;;
61036;SDS011;57313;47.040;15.498;2022-07-23T04:59:46;17.58;;;12.77;;
61036;SDS011;57313;47.040;15.498;2022-07-23T05:02:13;21.13;;;13.80;;
61036;SDS011;57313;47.040;15.498;2022-07-23T05:04:41;20.20;;;13.02;;
61036;SDS011;57313;47.040;15.498;2022-07-23T05:07:11;21.33;;;12.82;;
61036;SDS011;57313;47.040;15.498;2022-07-23T05:09:39;19.75;;;13.20;;
61036;SDS011;57313;47.040;15.498;2022-07-23T05:12:07;21.77;;;13.23;;
61036;SDS011;57313;47.040;15.498;2022-07-23T05:14:35;19.65;;;13.70;;
61036;SDS011;57313;47.040;15.498;2022-07-23T05:17:02;19.50;;;13.90;;
61036;SDS011;57313;47.040;15.498;2022-07-23T05:19:30;19.15;;;13.80;;
61036;SDS011;57313;47.040;15.498;2022-07-23T05:21:58;20.38;;;13.98;;
61036;SDS011;57313;47.040;15.498;2022-07-23T05:24:28;20.02;;;13.52;;
61036;SDS011;57313;47.040;15.498;2022-07-23T05:26:55;19.20;;;12.90;;
61036;SDS011;57313;47.040;15.498;2022-07-23T05:29:25;19.08;;;12.75;;
61036;SDS011;57313;47.040;15.498;2022-07-23T05:31:52;18.13;;;13.70;;
61036;SDS011;57313;47.040;15.498;2022-07-23T05:34:20;19.85;;;13.57;;
61036;SDS011;57313;47.040;15.498;2022-07-23T05:36:47;23.98;;;13.50;;
61036;SDS011;57313;47.040;15.498;2022-07-23T05:39:14;20.00;;;13.18;;
61036;SDS011;57313;47.040;15.498;2022-07-23T05:41:43;20.85;;;12.70;;
61036;SDS011;57313;47.040;15.498;2022-07-23T05:44:10;20.75;;;13.10;;
61036;SDS011;57313;47.040;15.498;2022-07-23T05:46:38;21.20;;;13.10;;
61036;SDS011;57313;47.040;15.498;2022-07-23T05:49:05;21.98;;;14.45;;
61036;SDS011;57313;47.040;15.498;2022-07-23T05:51:33;17.27;;;12.20;;
61036;SDS011;57313;47.040;15.498;2022-07-23T05:54:01;25.13;;;13.23;;
61036;SDS011;57313;47.040;15.498;2022-07-23T05:56:28;22.52;;;13.77;;
61036;SDS011;57313;47.040;15.498;2022-07-23T05:58:58;20.17;;;13.07;;
61036;SDS011;57313;47.040;15.498;2022-07-23T06:01:26;18.27;;;13.23;;
61036;SDS011;57313;47.040;15.498;2022-07-23T06:03:54;21.63;;;13.85;;
61036;SDS011;57313;47.040;15.498;2022-07-23T06:06:22;19.98;;;12.95;;
61036;SDS011;57313;47.040;15.498;2022-07-23T06:08:49;19.52;;;14.02;;
61036;SDS011;57313;47.040;15.498;2022-07-23T06:11:17;21.92;;;14.05;;
61036;SDS011;57313;47.040;15.498;2022-07-23T06:13:44;19.48;;;13.88;;
61036;SDS011;57313;47.040;15.498;2022-07-23T06:16:14;19.55;;;13.40;;
61036;SDS011;57313;47.040;15.498;2022-07-23T06:18:42;21.42;;;13.63;;
61036;SDS011;57313;47.040;15.498;2022-07-23T06:21:09;17.98;;;13.27;;
61036;SDS011;57313;47.040;15.498;2022-07-23T06:23:57;20.05;;;14.60;;
61036;SDS011;57313;47.040;15.498;2022-07-23T06:26:24;23.67;;;14.25;;
61036;SDS011;57313;47.040;15.498;2022-07-23T06:28:52;20.40;;;13.82;;
61036;SDS011;57313;47.040;15.498;2022-07-23T06:31:21;23.50;;;14.10;;
61036;SDS011;57313;47.040;15.498;2022-07-23T06:33:49;20.33;;;13.80;;
61036;SDS011;57313;47.040;15.498;2022-07-23T06:36:16;21.30;;;13.65;;
61036;SDS011;57313;47.040;15.498;2022-07-23T06:38:43;24.08;;;14.40;;
61036;SDS011;57313;47.040;15.498;2022-07-23T06:41:11;19.75;;;13.68;;
61036;SDS011;57313;47.040;15.498;2022-07-23T06:43:39;18.95;;;12.98;;
61036;SDS011;57313;47.040;15.498;2022-07-23T06:46:06;20.00;;;12.40;;
61036;SDS011;57313;47.040;15.498;2022-07-23T06:48:35;20.50;;;13.38;;
61036;SDS011;57313;47.040;15.498;2022-07-23T06:51:03;17.67;;;12.55;;
61036;SDS011;57313;47.040;15.498;2022-07-23T06:53:31;18.08;;;12.65;;
61036;SDS011;57313;47.040;15.498;2022-07-23T06:55:58;17.70;;;12.73;;
61036;SDS011;57313;47.040;15.498;2022-07-23T06:58:25;19.95;;;12.43;;
61036;SDS011;57313;47.040;15.498;2022-07-23T07:00:52;19.98;;;12.60;;
61036;SDS011;57313;47.040;15.498;2022-07-23T07:03:20;20.92;;;12.63;;
61036;SDS011;57313;47.040;15.498;2022-07-23T07:05:48;19.67;;;12.38;;
61036;SDS011;57313;47.040;15.498;2022-07-23T07:08:16;19.23;;;12.02;;
61036;SDS011;57313;47.040;15.498;2022-07-23T07:10:43;19.25;;;12.13;;
61036;SDS011;57313;47.040;15.498;2022-07-23T07:13:10;18.13;;;12.38;;
61036;SDS011;57313;47.040;15.498;2022-07-23T07:15:37;19.33;;;11.77;;
61036;SDS011;57313;47.040;15.498;2022-07-23T07:18:05;26.83;;;12.95;;
61036;SDS011;57313;47.040;15.498;2022-07-23T07:20:32;19.50;;;12.07;;
61036;SDS011;57313;47.040;15.498;2022-07-23T07:23:02;18.10;;;12.10;;
61036;SDS011;57313;47.040;15.498;2022-07-23T07:25:29;17.65;;;12.38;;
61036;SDS011;57313;47.040;15.498;2022-07-23T07:27:56;18.00;;;12.00;;
61036;SDS011;57313;47.040;15.498;2022-07-23T07:30:24;17.10;;;12.25;;
61036;SDS011;57313;47.040;15.498;2022-07-23T07:35:26;18.23;;;11.65;;
61036;SDS011;57313;47.040;15.498;2022-07-23T07:37:54;18.13;;;12.05;;
61036;SDS011;57313;47.040;15.498;2022-07-23T07:40:23;18.45;;;12.43;;
61036;SDS011;57313;47.040;15.498;2022-07-23T07:42:57;16.55;;;11.90;;
61036;SDS011;57313;47.040;15.498;2022-07-23T07:45:24;19.55;;;12.43;;
61036;SDS011;57313;47.040;15.498;2022-07-23T07:47:52;19.77;;;12.43;;
61036;SDS011;57313;47.040;15.498;2022-07-23T07:50:20;17.58;;;11.85;;
61036;SDS011;57313;47.040;15.498;2022-07-23T07:52:49;17.63;;;12.40;;
61036;SDS011;57313;47.040;15.498;2022-07-23T07:55:16;19.23;;;11.75;;
61036;SDS011;57313;47.040;15.498;2022-07-23T07:57:46;16.67;;;11.35;;
61036;SDS011;57313;47.040;15.498;2022-07-23T08:00:33;17.73;;;11.40;;
61036;SDS011;57313;47.040;15.498;2022-07-23T08:03:01;16.70;;;11.35;;
61036;SDS011;57313;47.040;15.498;2022-07-23T08:05:29;19.80;;;11.60;;
61036;SDS011;57313;47.040;15.498;2022-07-23T08:07:58;18.50;;;11.13;;
61036;SDS011;57313;47.040;15.498;2022-07-23T08:10:26;18.88;;;11.48;;
61036;SDS011;57313;47.040;15.498;2022-07-23T08:12:56;18.65;;;11.57;;
61036;SDS011;57313;47.040;15.498;2022-07-23T08:15:25;18.05;;;11.70;;
61036;SDS011;57313;47.040;15.498;2022-07-23T08:17:54;17.75;;;11.63;;
61036;SDS011;57313;47.040;15.498;2022-07-23T08:20:23;16.58;;;11.43;;
61036;SDS011;57313;47.040;15.498;2022-07-23T08:22:52;17.40;;;11.93;;
61036;SDS011;57313;47.040;15.498;2022-07-23T08:25:21;17.90;;;11.68;;
61036;SDS011;57313;47.040;15.498;2022-07-23T08:27:51;18.58;;;11.60;;
61036;SDS011;57313;47.040;15.498;2022-07-23T08:30:22;18.00;;;11.90;;
61036;SDS011;57313;47.040;15.498;2022-07-23T08:32:51;17.55;;;11.98;;
61036;SDS011;57313;47.040;15.498;2022-07-23T08:35:26;16.35;;;11.65;;
61036;SDS011;57313;47.040;15.498;2022-07-23T08:37:54;17.00;;;11.65;;
61036;SDS011;57313;47.040;15.498;2022-07-23T08:40:23;21.45;;;12.05;;
61036;SDS011;57313;47.040;15.498;2022-07-23T08:42:53;17.27;;;11.90;;
61036;SDS011;57313;47.040;15.498;2022-07-23T08:45:23;16.55;;;11.45;;
61036;SDS011;57313;47.040;15.498;2022-07-23T08:47:52;16.58;;;10.70;;
61036;SDS011;57313;47.040;15.498;2022-07-23T08:50:21;16.33;;;10.95;;
61036;SDS011;57313;47.040;15.498;2022-07-23T08:52:50;17.60;;;11.23;;
61036;SDS011;57313;47.040;15.498;2022-07-23T08:55:19;16.73;;;11.57;;
61036;SDS011;57313;47.040;15.498;2022-07-23T08:57:49;19.92;;;11.60;;
61036;SDS011;57313;47.040;15.498;2022-07-23T09:00:18;21.88;;;11.35;;
61036;SDS011;57313;47.040;15.498;2022-07-23T09:02:49;17.42;;;11.68;;
61036;SDS011;57313;47.040;15.498;2022-07-23T09:05:16;15.00;;;10.13;;
61036;SDS011;57313;47.040;15.498;2022-07-23T09:08:04;18.85;;;11.93;;
61036;SDS011;57313;47.040;15.498;2022-07-23T09:10:43;18.00;;;10.98;;
61036;SDS011;57313;47.040;15.498;2022-07-23T09:13:29;14.85;;;10.85;;
61036;SDS011;57313;47.040;15.498;2022-07-23T09:15:59;16.85;;;10.20;;
61036;SDS011;57313;47.040;15.498;2022-07-23T09:18:34;17.55;;;10.82;;
61036;SDS011;57313;47.040;15.498;2022-07-23T09:21:10;16.73;;;11.18;;
61036;SDS011;57313;47.040;15.498;2022-07-23T09:23:40;17.20;;;10.93;;
61036;SDS011;57313;47.040;15.498;2022-07-23T09:26:19;19.45;;;10.82;;
61036;SDS011;57313;47.040;15.498;2022-07-23T09:28:52;16.83;;;11.57;;
61036;SDS011;57313;47.040;15.498;2022-07-23T09:31:22;17.73;;;10.30;;
61036;SDS011;57313;47.040;15.498;2022-07-23T09:33:51;17.33;;;10.32;;
61036;SDS011;57313;47.040;15.498;2022-07-23T09:36:26;15.93;;;10.40;;
61036;SDS011;57313;47.040;15.498;2022-07-23T09:38:54;17.20;;;10.45;;
61036;SDS011;57313;47.040;15.498;2022-07-23T09:41:22;13.85;;;9.82;;
61036;SDS011;57313;47.040;15.498;2022-07-23T09:43:54;15.38;;;10.18;;
61036;SDS011;57313;47.040;15.498;2022-07-23T09:46:23;14.55;;;9.57;;
61036;SDS011;57313;47.040;15.498;2022-07-23T09:48:54;15.82;;;9.95;;
61036;SDS011;57313;47.040;15.498;2022-07-23T09:51:23;14.88;;;9.07;;
61036;SDS011;57313;47.040;15.498;2022-07-23T09:53:51;15.07;;;9.75;;
61036;SDS011;57313;47.040;15.498;2022-07-23T09:56:18;14.65;;;9.20;;
61036;SDS011;57313;47.040;15.498;2022-07-23T09:58:53;17.27;;;9.48;;
61036;SDS011;57313;47.040;15.498;2022-07-23T10:01:21;15.55;;;9.02;;
61036;SDS011;57313;47.040;15.498;2022-07-23T10:03:48;12.45;;;8.38;;
61036;SDS011;57313;47.040;15.498;2022-07-23T10:06:18;14.15;;;8.75;;
61036;SDS011;57313;47.040;15.498;2022-07-23T10:08:45;12.90;;;8.48;;
61036;SDS011;57313;47.040;15.498;2022-07-23T10:11:17;13.38;;;9.00;;
61036;SDS011;57313;47.040;15.498;2022-07-23T10:13:44;12.98;;;8.43;;
61036;SDS011;57313;47.040;15.498;2022-07-23T10:16:12;17.13;;;8.60;;
61036;SDS011;57313;47.040;15.498;2022-07-23T10:18:53;17.17;;;8.93;;
61036;SDS011;57313;47.040;15.498;2022-07-23T10:21:24;15.70;;;8.65;;
61036;SDS011;57313;47.040;15.498;2022-07-23T10:24:00;14.80;;;9.00;;
61036;SDS011;57313;47.040;15.498;2022-07-23T10:26:38;13.98;;;7.85;;
61036;SDS011;57313;47.040;15.498;2022-07-23T10:29:18;12.80;;;8.30;;
61036;SDS011;57313;47.040;15.498;2022-07-23T10:31:56;13.60;;;8.20;;
61036;SDS011;57313;47.040;15.498;2022-07-23T10:34:33;12.70;;;7.78;;
61036;SDS011;57313;47.040;15.498;2022-07-23T10:37:12;21.30;;;8.13;;
61036;SDS011;57313;47.040;15.498;2022-07-23T10:39:46;16.70;;;8.60;;
61036;SDS011;57313;47.040;15.498;2022-07-23T10:42:14;16.05;;;8.55;;
61036;SDS011;57313;47.040;15.498;2022-07-23T10:44:43;13.85;;;8.23;;
61036;SDS011;57313;47.040;15.498;2022-07-23T10:47:12;12.27;;;8.40;;
61036;SDS011;57313;47.040;15.498;2022-07-23T10:49:52;16.58;;;8.65;;
61036;SDS011;57313;47.040;15.498;2022-07-23T10:52:35;16.88;;;8.02;;
61036;SDS011;57313;47.040;15.498;2022-07-23T10:58:09;12.27;;;8.57;;
61036;SDS011;57313;47.040;15.498;2022-07-23T11:00:36;13.73;;;8.45;;
61036;SDS011;57313;47.040;15.498;2022-07-23T11:03:27;13.70;;;8.50;;
61036;SDS011;57313;47.040;15.498;2022-07-23T11:05:58;14.88;;;8.68;;
61036;SDS011;57313;47.040;15.498;2022-07-23T11:08:27;12.70;;;8.70;;
61036;SDS011;57313;47.040;15.498;2022-07-23T11:10:59;14.65;;;8.65;;
61036;SDS011;57313;47.040;15.498;2022-07-23T11:13:40;15.65;;;8.63;;
61036;SDS011;57313;47.040;15.498;2022-07-23T11:16:16;14.75;;;9.43;;
61036;SDS011;57313;47.040;15.498;2022-07-23T11:19:06;15.25;;;9.02;;
61036;SDS011;57313;47.040;15.498;2022-07-23T11:21:43;14.02;;;8.65;;
61036;SDS011;57313;47.040;15.498;2022-07-23T11:24:20;17.60;;;9.27;;
61036;SDS011;57313;47.040;15.498;2022-07-23T11:26:52;13.85;;;8.18;;
61036;SDS011;57313;47.040;15.498;2022-07-23T11:32:20;12.68;;;8.55;;
61036;SDS011;57313;47.040;15.498;2022-07-23T11:34:51;16.80;;;8.23;;
61036;SDS011;57313;47.040;15.498;2022-07-23T11:37:29;13.77;;;9.02;;
61036;SDS011;57313;47.040;15.498;2022-07-23T11:40:03;13.90;;;8.70;;
61036;SDS011;57313;47.040;15.498;2022-07-23T11:42:33;13.77;;;8.20;;
61036;SDS011;57313;47.040;15.498;2022-07-23T11:45:01;14.75;;;8.93;;
61036;SDS011;57313;47.040;15.498;2022-07-23T11:47:29;13.23;;;8.68;;
61036;SDS011;57313;47.040;15.498;2022-07-23T11:49:57;13.55;;;8.77;;
61036;SDS011;57313;47.040;15.498;2022-07-23T11:52:26;16.88;;;8.70;;
61036;SDS011;57313;47.040;15.498;2022-07-23T11:54:55;12.30;;;8.20;;
61036;SDS011;57313;47.040;15.498;2022-07-23T11:57:26;19.17;;;8.23;;
61036;SDS011;57313;47.040;15.498;2022-07-23T11:59:56;14.75;;;8.35;;
61036;SDS011;57313;47.040;15.498;2022-07-23T12:02:24;12.90;;;8.35;;
61036;SDS011;57313;47.040;15.498;2022-07-23T12:04:52;15.30;;;8.13;;
61036;SDS011;57313;47.040;15.498;2022-07-23T12:07:24;14.50;;;8.77;;
61036;SDS011;57313;47.040;15.498;2022-07-23T12:09:56;12.75;;;8.20;;
61036;SDS011;57313;47.040;15.498;2022-07-23T12:12:26;12.13;;;8.13;;
61036;SDS011;57313;47.040;15.498;2022-07-23T12:14:54;13.93;;;8.82;;
61036;SDS011;57313;47.040;15.498;2022-07-23T12:17:27;13.43;;;8.20;;
61036;SDS011;57313;47.040;15.498;2022-07-23T12:19:57;11.40;;;8.10;;
61036;SDS011;57313;47.040;15.498;2022-07-23T12:22:33;16.23;;;8.80;;
61036;SDS011;57313;47.040;15.498;2022-07-23T12:25:03;14.15;;;8.15;;
61036;SDS011;57313;47.040;15.498;2022-07-23T12:27:34;12.88;;;8.73;;
61036;SDS011;57313;47.040;15.498;2022-07-23T12:30:18;12.80;;;8.48;;
61036;SDS011;57313;47.040;15.498;2022-07-23T12:32:50;18.05;;;8.52;;
61036;SDS011;57313;47.040;15.498;2022-07-23T12:35:18;16.88;;;8.07;;
61036;SDS011;57313;47.040;15.498;2022-07-23T12:37:47;12.35;;;8.45;;
61036;SDS011;57313;47.040;15.498;2022-07-23T12:40:23;18.65;;;8.50;;
61036;SDS011;57313;47.040;15.498;2022-07-23T12:42:55;13.52;;;8.48;;
61036;SDS011;57313;47.040;15.498;2022-07-23T12:45:23;14.88;;;8.32;;
61036;SDS011;57313;47.040;15.498;2022-07-23T12:47:55;16.15;;;8.52;;
61036;SDS011;57313;47.040;15.498;2022-07-23T12:50:44;13.32;;;8.57;;
61036;SDS011;57313;47.040;15.498;2022-07-23T12:53:17;14.60;;;8.60;;
61036;SDS011;57313;47.040;15.498;2022-07-23T12:55:50;13.85;;;8.00;;
61036;SDS011;57313;47.040;15.498;2022-07-23T12:58:44;14.95;;;8.32;;
61036;SDS011;57313;47.040;15.498;2022-07-23T13:01:27;12.90;;;8.48;;
61036;SDS011;57313;47.040;15.498;2022-07-23T13:03:56;12.07;;;8.10;;
61036;SDS011;57313;47.040;15.498;2022-07-23T13:06:26;14.10;;;8.07;;
61036;SDS011;57313;47.040;15.498;2022-07-23T13:08:56;14.88;;;8.10;;
61036;SDS011;57313;47.040;15.498;2022-07-23T13:11:24;12.52;;;7.63;;
61036;SDS011;57313;47.040;15.498;2022-07-23T13:13:53;12.23;;;7.85;;
61036;SDS011;57313;47.040;15.498;2022-07-23T13:16:21;11.23;;;7.38;;
61036;SDS011;57313;47.040;15.498;2022-07-23T13:18:48;12.43;;;8.15;;
61036;SDS011;57313;47.040;15.498;2022-07-23T13:21:18;13.45;;;7.78;;
61036;SDS011;57313;47.040;15.498;2022-07-23T13:23:46;12.60;;;7.75;;
61036;SDS011;57313;47.040;15.498;2022-07-23T13:26:13;12.48;;;7.80;;
61036;SDS011;57313;47.040;15.498;2022-07-23T13:28:41;12.32;;;8.00;;
61036;SDS011;57313;47.040;15.498;2022-07-23T13:31:10;14.65;;;8.25;;
61036;SDS011;57313;47.040;15.498;2022-07-23T13:33:37;12.10;;;7.40;;
61036;SDS011;57313;47.040;15.498;2022-07-23T13:36:05;12.85;;;8.13;;
61036;SDS011;57313;47.040;15.498;2022-07-23T13:38:33;16.60;;;7.97;;
61036;SDS011;57313;47.040;15.498;2022-07-23T13:41:00;15.02;;;8.60;;
61036;SDS011;57313;47.040;15.498;2022-07-23T13:43:29;14.02;;;8.35;;
61036;SDS011;57313;47.040;15.498;2022-07-23T13:46:02;15.32;;;8.27;;
61036;SDS011;57313;47.040;15.498;2022-07-23T13:48:31;12.63;;;8.05;;
61036;SDS011;57313;47.040;15.498;2022-07-23T13:51:00;12.85;;;7.75;;
61036;SDS011;57313;47.040;15.498;2022-07-23T13:53:27;12.45;;;7.60;;
61036;SDS011;57313;47.040;15.498;2022-07-23T13:55:55;11.70;;;7.50;;
61036;SDS011;57313;47.040;15.498;2022-07-23T13:58:22;14.40;;;7.55;;
61036;SDS011;57313;47.040;15.498;2022-07-23T14:00:50;15.38;;;7.97;;
61036;SDS011;57313;47.040;15.498;2022-07-23T14:03:20;12.57;;;8.43;;
61036;SDS011;57313;47.040;15.498;2022-07-23T14:05:49;12.50;;;7.60;;
61036;SDS011;57313;47.040;15.498;2022-07-23T14:08:17;13.70;;;7.72;;
61036;SDS011;57313;47.040;15.498;2022-07-23T14:10:48;12.88;;;7.78;;
61036;SDS011;57313;47.040;15.498;2022-07-23T14:13:15;13.30;;;7.40;;
61036;SDS011;57313;47.040;15.498;2022-07-23T14:15:47;11.45;;;7.40;;
61036;SDS011;57313;47.040;15.498;2022-07-23T14:18:15;11.98;;;8.07;;
61036;SDS011;57313;47.040;15.498;2022-07-23T14:20:43;11.85;;;8.23;;
61036;SDS011;57313;47.040;15.498;2022-07-23T14:23:12;12.63;;;7.93;;
61036;SDS011;57313;47.040;15.498;2022-07-23T14:25:40;12.20;;;7.70;;
61036;SDS011;57313;47.040;15.498;2022-07-23T14:28:08;11.80;;;7.70;;
61036;SDS011;57313;47.040;15.498;2022-07-23T14:30:36;12.18;;;7.80;;
61036;SDS011;57313;47.040;15.498;2022-07-23T14:33:04;12.13;;;7.88;;
61036;SDS011;57313;47.040;15.498;2022-07-23T14:35:31;12.45;;;7.80;;
61036;SDS011;57313;47.040;15.498;2022-07-23T14:38:00;13.15;;;7.95;;